Flight Track Log - Related Links

Times and Time Zones

All times are in EDT time to prevent confusion due to time zone crossing. See the SWA561 flight status page for this flight to view local times or setup timezone preferences in your user account.

Time Position Orientation Groundspeed Altitude Reporting Facility
EDT Latitude Longitude Course Direction KTS MPH feet Rate Location/Type
Tue 19:44:01 37.7278 -122.2533 107° East 147 169 2,000  Level Oakland Center
Tue 19:45:02 37.7431 -122.3156 287° West 192 221 3,800 2,439 Climbing Oakland Center
Tue 19:46:04 37.7269 -122.3875 254° West 237 273 7,000 3,220 Climbing Oakland Center
Tue 19:47:05 37.6464 -122.4161 196° South 293 337 10,400 3,541 Climbing Oakland Center
Tue 19:48:06 37.5544 -122.4450 194° South 338 389 14,200 3,393 Climbing Oakland Center
Tue 19:49:00 37.2429 -122.2549 107° East  Level FlightAware Approximate
Tue 19:49:07 37.4594 -122.3506 142° Southeast 388 447 17,300  Level Oakland Center
Tue 19:50:08 37.3783 -122.2381 132° Southeast 430 495 20,200 3,000 Climbing Oakland Center
Tue 19:51:09 37.2928 -122.1211 133° Southeast 452 520 23,400 2,951 Climbing Oakland Center
Tue 19:52:10 37.2031 -122.0033 134° Southeast 465 535 26,200 2,293 Climbing Oakland Center
Tue 19:53:12 37.1128 -121.8792 132° Southeast 480 552 28,100 1,805 Climbing Oakland Center
Tue 19:54:13 37.0150 -121.7531 134° Southeast 503 579 29,900 2,311 Climbing Oakland Center
Tue 19:55:14 36.9167 -121.6244 134° Southeast 510 587 32,800 2,410 Climbing Oakland Center
Tue 19:56:15 36.8097 -121.4825 133° Southeast 506 582 34,800 1,082 Climbing Oakland Center
Tue 19:57:16 36.7144 -121.3553 133° Southeast 503 579 35,000 98 Climbing Oakland Center
Tue 19:58:18 36.6194 -121.2308 134° Southeast 496 571 35,000  Level Oakland Center
Tue 19:59:19 36.5239 -121.1064 134° Southeast 498 573 35,000  Level Oakland Center
Tue 20:00:20 36.4269 -120.9800 134° Southeast 503 579 35,000  Level Oakland Center
Tue 20:01:21 36.3311 -120.8553 134° Southeast 501 577 35,000  Level Oakland Center
Tue 20:02:22 36.2342 -120.7308 134° Southeast 504 580 35,000  Level Oakland Center
Tue 20:03:24 36.1375 -120.6042 133° Southeast 505 581 35,000  Level Oakland Center
Tue 20:04:25 36.0406 -120.4775 133° Southeast 506 582 35,000  Level Oakland Center
Tue 20:05:26 35.9228 -120.3294 134° Southeast 502 578 35,000  Level Oakland Center
Tue 20:06:27 35.8244 -120.2031 134° Southeast 506 582 35,000  Level Oakland Center
Tue 20:07:28 35.7244 -120.0783 135° Southeast 506 582 35,000 -341 Level Oakland Center
Tue 20:08:30 35.6222 -119.9569 136° Southeast 504 580 34,300 -732 Descending Oakland Center
Tue 20:09:31 35.4992 -119.8506 145° Southeast 531 611 33,500 -639 Descending Oakland Center
Tue 20:10:32 35.3725 -119.7414 145° Southeast 548 631 33,000 -246 Descending Oakland Center
Tue 20:11:33 35.2472 -119.6344 145° Southeast 547 629 33,000 -244 Level Oakland Center
Tue 20:12:35 35.1236 -119.5286 145° Southeast 541 623 32,500 -1,610 Descending Oakland Center
Tue 20:13:36 35.0028 -119.4258 145° Southeast 534 615 29,700 -2,705 Descending Oakland Center
Tue 20:14:37 34.8853 -119.3275 146° Southeast 520 598 27,000 -2,508 Descending Oakland Center
Tue 20:15:38 34.7756 -119.2325 145° Southeast 495 570 24,600 -2,277 Descending Oakland Center
Tue 20:16:54 34.6464 -119.1233 145° Southeast 472 543 21,800 -2,261 Descending Los Angeles Center
Tue 20:17:56 34.5389 -119.0347 146° Southeast 444 511 19,400 -2,419 Descending Los Angeles Center
Tue 20:18:58 34.4231 -118.9381 145° Southeast 420 483 16,800 -2,371 Descending Los Angeles Center
Tue 20:20:00 34.3269 -118.8700 150° Southeast 398 458 14,500 -2,177 Descending Los Angeles Center
Tue 20:21:02 34.2231 -118.8325 163° South 389 448 12,300 -1,536 Descending Los Angeles Center
Tue 20:22:05 34.1269 -118.7972 163° South 364 419 11,300 -1,008 Descending Los Angeles Center
Tue 20:23:07 34.0417 -118.7392 151° Southeast 320 368 10,200 -726 Descending Los Angeles Center
Tue 20:24:09 34.0272 -118.6378 100° East 277 319 9,800 -634 Descending Los Angeles Center
Tue 20:25:10 34.0197 -118.5622 97° East 270 311 8,900 -1,113 Descending Los Angeles Center
Tue 20:26:13 34.0108 -118.4564 96° East 256 295 7,500 -1,200 Descending Los Angeles Center
Tue 20:27:15 34.0189 -118.3819 83° East 242 278 6,400 -1,161 Descending Los Angeles Center
Tue 20:28:17 34.0239 -118.3028 86° East 238 274 5,100 -1,355 Descending Los Angeles Center
Tue 20:29:19 33.9906 -118.2528 129° Southeast 248 285 3,600 -1,355 Descending Los Angeles Center
Tue 20:30:21 33.9619 -118.2942 230° Southwest 199 229 2,300 -1,113 Descending Los Angeles Center
Tue 20:31:23 33.9583 -118.3444 265° West 150 173 1,300 -871 Descending Los Angeles Center
Tue 20:32:25 33.9556 -118.3817 265° West 128 147 500 -581 Descending Los Angeles Center
Tue 20:33:27 33.9508 -118.4228 262° West 120 138 100 -387 Descending Los Angeles Center
Tue 20:35:00 33.9425 -118.4081 231° Southwest  Level Estimated
Tue 20:42:00 33.9425 -118.4081 228° Southwest  Level Estimated

Login

Don't have an account? Register now (free) for customized features, flight alerts, and more!